createdAt,value
2018-12-30T00:01:01.786Z,74.79
2018-12-30T00:03:30.942Z,74.92
2018-12-30T00:06:00.877Z,74.83
2018-12-30T00:08:30.978Z,74.65
2018-12-30T00:11:00.388Z,74.61
2018-12-30T00:13:30.267Z,74.78
2018-12-30T00:15:59.842Z,74.89
2018-12-30T00:18:29.305Z,74.61
2018-12-30T00:20:58.501Z,74.54
2018-12-30T00:23:28.329Z,74.42
2018-12-30T00:25:57.556Z,74.50
2018-12-30T00:28:27.225Z,74.77
2018-12-30T00:30:56.937Z,74.72
2018-12-30T00:33:26.357Z,74.82
2018-12-30T00:35:55.772Z,75.07
2018-12-30T00:38:25.226Z,75.29
2018-12-30T00:40:54.696Z,75.25
2018-12-30T00:43:24.097Z,75.37
2018-12-30T00:45:53.673Z,75.31
2018-12-30T00:48:23.309Z,75.30
2018-12-30T00:50:52.485Z,75.17
2018-12-30T00:53:21.848Z,75.18
2018-12-30T00:55:51.370Z,75.12
2018-12-30T00:58:20.755Z,75.18
2018-12-30T01:00:50.316Z,75.09
2018-12-30T01:03:19.507Z,75.24
2018-12-30T01:05:48.637Z,75.14
2018-12-30T01:08:18.338Z,75.15
2018-12-30T01:10:47.884Z,75.69
2018-12-30T01:13:17.058Z,76.27
2018-12-30T01:15:46.798Z,76.77
2018-12-30T01:18:16.256Z,77.00
2018-12-30T01:20:45.623Z,77.25
2018-12-30T01:23:15.018Z,77.19
2018-12-30T01:25:44.208Z,77.33
2018-12-30T01:28:13.518Z,77.17
2018-12-30T01:30:43.316Z,77.19
2018-12-30T01:33:12.843Z,76.88
2018-12-30T01:35:42.019Z,76.38
2018-12-30T01:38:11.420Z,76.35
2018-12-30T01:40:41.051Z,76.34
2018-12-30T01:43:10.421Z,76.49
2018-12-30T01:45:39.841Z,76.17
2018-12-30T01:48:09.030Z,76.06
2018-12-30T01:50:38.430Z,75.82
2018-12-30T01:53:08.453Z,75.65
2018-12-30T01:55:37.888Z,75.08
2018-12-30T01:58:07.353Z,75.27
2018-12-30T02:00:37.076Z,75.23
2018-12-30T02:03:06.521Z,75.06
2018-12-30T02:05:36.205Z,74.83
2018-12-30T02:08:06.328Z,74.65
2018-12-30T02:10:35.480Z,74.30
2018-12-30T02:13:05.962Z,74.42
2018-12-30T02:15:35.398Z,74.34
2018-12-30T02:18:05.047Z,74.06
2018-12-30T02:20:34.276Z,73.86
2018-12-30T02:23:03.864Z,74.17
2018-12-30T02:25:33.268Z,74.03
2018-12-30T02:28:02.693Z,74.20
2018-12-30T02:30:32.361Z,73.81
2018-12-30T02:33:01.909Z,73.68
2018-12-30T02:35:31.065Z,73.89
2018-12-30T02:38:00.666Z,73.75
2018-12-30T02:40:30.062Z,73.93
2018-12-30T02:42:59.264Z,73.95
2018-12-30T02:45:28.930Z,73.85
2018-12-30T02:47:58.103Z,74.25
2018-12-30T02:50:27.302Z,74.30
2018-12-30T02:52:57.380Z,74.32
2018-12-30T02:55:26.759Z,74.33
2018-12-30T02:57:56.019Z,74.48
2018-12-30T03:00:25.370Z,74.58
2018-12-30T03:02:54.503Z,74.52
2018-12-30T03:05:23.943Z,74.65
2018-12-30T03:07:53.622Z,74.70
2018-12-30T03:10:23.023Z,74.77
2018-12-30T03:12:52.451Z,75.00
2018-12-30T03:15:22.021Z,74.90
2018-12-30T03:17:51.601Z,74.92
2018-12-30T03:20:21.048Z,74.79
2018-12-30T03:22:50.635Z,74.83
2018-12-30T03:25:20.086Z,74.67
2018-12-30T03:27:49.530Z,74.57
2018-12-30T03:30:19.351Z,74.17
2018-12-30T03:32:48.710Z,74.10
2018-12-30T03:35:18.713Z,73.91
2018-12-30T03:37:48.386Z,74.22
2018-12-30T03:40:17.576Z,74.33
2018-12-30T03:42:47.026Z,74.54
2018-12-30T03:45:16.692Z,74.74
2018-12-30T03:47:46.100Z,74.89
2018-12-30T03:50:15.234Z,74.93
2018-12-30T03:52:44.907Z,75.00
2018-12-30T03:55:14.396Z,75.16
2018-12-30T03:57:43.761Z,75.26
2018-12-30T04:00:13.182Z,75.42
2018-12-30T04:02:42.622Z,75.49
2018-12-30T04:05:12.008Z,75.57
2018-12-30T04:07:41.398Z,75.70
2018-12-30T04:10:10.539Z,75.64
2018-12-30T04:12:39.681Z,75.43
2018-12-30T04:15:09.410Z,75.56
2018-12-30T04:17:38.506Z,75.49
2018-12-30T04:20:07.731Z,75.58
2018-12-30T04:22:37.269Z,75.63
2018-12-30T04:25:06.441Z,75.54
2018-12-30T04:27:35.865Z,75.47
2018-12-30T04:30:07.764Z,75.25
2018-12-30T04:32:37.007Z,75.29
2018-12-30T04:35:07.024Z,75.25
2018-12-30T04:37:36.801Z,75.27
2018-12-30T04:40:07.202Z,75.38
2018-12-30T04:42:36.508Z,75.35
2018-12-30T04:45:06.828Z,75.29
2018-12-30T04:47:36.311Z,75.16
2018-12-30T04:50:07.705Z,75.11
2018-12-30T04:52:36.814Z,75.15
2018-12-30T04:55:07.122Z,75.14
2018-12-30T04:57:36.416Z,75.08
2018-12-30T05:00:06.602Z,75.09
2018-12-30T05:02:36.052Z,75.19
2018-12-30T05:05:07.004Z,75.19
2018-12-30T05:07:36.463Z,75.29
2018-12-30T05:10:06.772Z,75.23
2018-12-30T05:12:36.427Z,75.15
2018-12-30T05:15:07.507Z,75.06
2018-12-30T05:17:37.038Z,75.15
2018-12-30T05:20:07.502Z,75.40
2018-12-30T05:22:36.871Z,75.54
2018-12-30T05:25:07.013Z,75.24
2018-12-30T05:27:36.401Z,75.51
2018-12-30T05:30:07.363Z,75.31
2018-12-30T05:32:37.057Z,75.35
2018-12-30T05:35:06.737Z,75.41
2018-12-30T05:37:35.838Z,75.45
2018-12-30T05:40:06.179Z,75.32
2018-12-30T05:42:35.329Z,75.43
2018-12-30T05:45:05.986Z,75.68
2018-12-30T05:47:35.643Z,75.61
2018-12-30T05:50:09.928Z,75.49
2018-12-30T05:52:42.024Z,75.50
2018-12-30T05:55:10.440Z,75.52
2018-12-30T05:57:39.728Z,75.70
2018-12-30T06:00:09.477Z,75.65
2018-12-30T06:02:38.932Z,75.34
2018-12-30T06:05:08.029Z,75.27
2018-12-30T06:07:37.476Z,75.09
2018-12-30T06:10:06.935Z,74.99
2018-12-30T06:12:36.308Z,74.71
2018-12-30T06:15:07.962Z,74.98
2018-12-30T06:17:37.386Z,74.94
2018-12-30T06:20:06.844Z,74.94
2018-12-30T06:22:36.459Z,74.75
2018-12-30T06:25:06.472Z,74.77
2018-12-30T06:27:35.845Z,74.71
2018-12-30T06:30:07.765Z,74.75
2018-12-30T06:32:37.201Z,74.69
2018-12-30T06:35:06.897Z,74.51
2018-12-30T06:37:36.565Z,74.10
2018-12-30T06:40:11.352Z,74.03
2018-12-30T06:42:38.669Z,73.97
2018-12-30T06:45:07.845Z,73.86
2018-12-30T06:47:37.237Z,73.74
2018-12-30T06:50:07.928Z,73.65
2018-12-30T06:52:37.097Z,73.87
2018-12-30T06:55:06.579Z,73.91
2018-12-30T06:57:36.183Z,73.76
2018-12-30T07:00:07.052Z,73.57
2018-12-30T07:02:36.267Z,73.69
2018-12-30T07:05:07.439Z,73.80
2018-12-30T07:07:36.949Z,73.94
2018-12-30T07:10:07.372Z,73.96
2018-12-30T07:12:37.098Z,74.03
2018-12-30T07:15:07.655Z,74.22
2018-12-30T07:17:37.215Z,74.52
2018-12-30T07:20:07.778Z,74.56
2018-12-30T07:22:36.966Z,74.69
2018-12-30T07:25:06.580Z,74.84
2018-12-30T07:27:36.104Z,74.95
2018-12-30T07:30:07.028Z,74.96
2018-12-30T07:32:36.440Z,75.13
2018-12-30T07:35:06.583Z,74.96
2018-12-30T07:37:35.765Z,74.89
2018-12-30T07:40:06.712Z,74.97
2018-12-30T07:42:36.625Z,75.22
2018-12-30T07:45:06.737Z,75.21
2018-12-30T07:47:36.132Z,75.38
2018-12-30T07:50:08.156Z,75.48
2018-12-30T07:52:37.292Z,75.26
2018-12-30T07:55:06.429Z,75.34
2018-12-30T07:57:35.872Z,75.42
2018-12-30T08:00:08.757Z,75.43
2018-12-30T08:02:38.507Z,75.29
2018-12-30T08:05:07.897Z,75.19
2018-12-30T08:07:37.097Z,75.28
2018-12-30T08:10:06.473Z,74.95
2018-12-30T08:12:35.906Z,75.43
2018-12-30T08:15:07.448Z,75.75
2018-12-30T08:17:36.557Z,75.43
2018-12-30T08:20:08.540Z,75.44
2018-12-30T08:22:37.970Z,75.54
2018-12-30T08:25:07.086Z,75.18
2018-12-30T08:27:36.668Z,74.84
2018-12-30T08:30:07.268Z,74.79
2018-12-30T08:32:36.634Z,75.11
2018-12-30T08:35:06.862Z,74.45
2018-12-30T08:37:36.030Z,74.61
2018-12-30T08:40:07.664Z,74.93
2018-12-30T08:42:37.061Z,74.86
2018-12-30T08:45:07.704Z,75.04
2018-12-30T08:47:37.327Z,75.20
2018-12-30T08:50:08.137Z,74.90
2018-12-30T08:52:37.289Z,75.19
2018-12-30T08:55:07.085Z,75.13
2018-12-30T08:57:36.191Z,75.06
2018-12-30T09:00:07.373Z,75.30
2018-12-30T09:02:36.718Z,75.19
2018-12-30T09:05:06.070Z,75.48
2018-12-30T09:07:35.532Z,75.60
2018-12-30T09:10:08.679Z,75.68
2018-12-30T09:12:38.129Z,75.73
2018-12-30T09:15:07.373Z,75.69
2018-12-30T09:17:36.599Z,75.52
2018-12-30T09:20:06.460Z,75.59
2018-12-30T09:22:35.886Z,75.73
2018-12-30T09:25:06.595Z,75.67
2018-12-30T09:27:35.728Z,75.99
2018-12-30T09:30:06.658Z,75.95
2018-12-30T09:32:36.176Z,75.82
2018-12-30T09:35:05.479Z,75.98
2018-12-30T09:37:34.741Z,75.93
2018-12-30T09:40:05.012Z,75.93
2018-12-30T09:42:34.472Z,75.74
2018-12-30T09:45:03.898Z,75.72
2018-12-30T09:47:34.024Z,75.73
2018-12-30T09:50:03.334Z,75.47
2018-12-30T09:52:32.553Z,75.86
2018-12-30T09:55:02.100Z,75.59
2018-12-30T09:57:31.274Z,75.71
2018-12-30T10:00:00.450Z,75.98
2018-12-30T10:02:30.135Z,75.97
2018-12-30T10:05:18.829Z,76.13
2018-12-30T10:07:48.386Z,76.39
2018-12-30T10:10:18.190Z,76.74
2018-12-30T10:12:47.806Z,76.51
2018-12-30T10:15:17.639Z,76.50
2018-12-30T10:17:47.281Z,76.32
2018-12-30T10:20:17.096Z,76.31
2018-12-30T10:22:46.658Z,76.07
2018-12-30T10:25:15.925Z,76.19
2018-12-30T10:27:45.386Z,76.56
2018-12-30T10:30:15.368Z,76.61
2018-12-30T10:32:44.807Z,76.59
2018-12-30T10:35:14.589Z,76.49
2018-12-30T10:37:44.260Z,76.59
2018-12-30T10:40:13.659Z,76.68
2018-12-30T10:42:43.093Z,76.26
2018-12-30T10:45:12.424Z,76.39
2018-12-30T10:47:41.959Z,76.60
2018-12-30T10:50:11.195Z,76.76
2018-12-30T10:52:40.905Z,76.81
2018-12-30T10:55:10.318Z,76.84
2018-12-30T10:57:39.433Z,76.92
2018-12-30T11:00:09.390Z,76.78
2018-12-30T11:02:38.893Z,76.60
2018-12-30T11:05:08.005Z,76.31
2018-12-30T11:07:37.316Z,76.13
2018-12-30T11:10:06.540Z,76.07
2018-12-30T11:12:35.676Z,76.00
2018-12-30T11:15:06.779Z,76.25
2018-12-30T11:17:36.276Z,76.34
2018-12-30T11:20:07.314Z,76.09
2018-12-30T11:22:36.728Z,75.98
2018-12-30T11:25:06.874Z,76.17
2018-12-30T11:27:36.608Z,76.39
2018-12-30T11:30:27.178Z,76.49
2018-12-30T11:32:56.864Z,76.42
2018-12-30T11:35:26.254Z,76.14
2018-12-30T11:37:55.410Z,76.54
2018-12-30T11:40:25.228Z,76.36
2018-12-30T11:42:54.602Z,76.63
2018-12-30T11:45:24.071Z,76.54
2018-12-30T11:47:54.042Z,76.61
2018-12-30T11:50:23.558Z,76.83
2018-12-30T11:52:52.807Z,76.98
2018-12-30T11:55:22.180Z,76.77
2018-12-30T11:57:51.452Z,76.96
2018-12-30T12:00:20.584Z,77.12
2018-12-30T12:02:50.254Z,77.18
2018-12-30T12:05:19.395Z,77.33
2018-12-30T12:07:48.807Z,77.26
2018-12-30T12:10:18.302Z,77.36
2018-12-30T12:12:48.987Z,77.56
2018-12-30T12:15:18.580Z,77.78
2018-12-30T12:17:47.913Z,77.48
2018-12-30T12:20:17.342Z,77.70
2018-12-30T12:22:47.274Z,77.87
2018-12-30T12:25:17.029Z,77.75
2018-12-30T12:27:46.481Z,77.49
2018-12-30T12:30:15.631Z,77.57
2018-12-30T12:32:45.136Z,77.78
2018-12-30T12:35:14.646Z,77.95
2018-12-30T12:37:43.741Z,77.92
2018-12-30T12:40:13.005Z,77.62
2018-12-30T12:42:42.330Z,77.56
2018-12-30T12:45:11.745Z,77.26
2018-12-30T12:47:41.120Z,77.50
2018-12-30T12:50:10.476Z,77.46
2018-12-30T12:52:39.621Z,77.49
2018-12-30T12:55:09.125Z,77.45
2018-12-30T12:57:38.791Z,77.37
2018-12-30T13:00:11.311Z,77.12
2018-12-30T13:02:40.471Z,76.66
2018-12-30T13:05:09.651Z,76.67
2018-12-30T13:07:39.071Z,76.58
2018-12-30T13:10:10.990Z,76.43
2018-12-30T13:12:40.152Z,76.41
2018-12-30T13:15:09.358Z,75.87
2018-12-30T13:17:38.775Z,76.60
2018-12-30T13:20:08.204Z,75.83
2018-12-30T13:22:37.596Z,75.74
2018-12-30T13:25:06.981Z,75.96
2018-12-30T13:27:36.228Z,75.88
2018-12-30T13:30:08.328Z,75.88
2018-12-30T13:32:37.719Z,75.56
2018-12-30T13:35:07.577Z,75.53
2018-12-30T13:37:36.762Z,76.03
2018-12-30T13:40:07.083Z,75.83
2018-12-30T13:42:36.580Z,76.41
2018-12-30T13:45:06.742Z,76.43
2018-12-30T13:47:35.911Z,76.18
2018-12-30T13:50:07.314Z,76.07
2018-12-30T13:52:36.922Z,76.36
2018-12-30T13:55:06.443Z,75.98
2018-12-30T13:57:35.620Z,76.24
2018-12-30T14:00:09.497Z,75.67
2018-12-30T14:02:39.060Z,75.35
2018-12-30T14:05:08.477Z,75.81
2018-12-30T14:07:37.605Z,76.08
2018-12-30T14:10:09.822Z,75.68
2018-12-30T14:12:39.249Z,75.70
2018-12-30T14:15:08.356Z,75.55
2018-12-30T14:17:37.537Z,75.38
2018-12-30T14:20:08.908Z,75.26
2018-12-30T14:22:37.986Z,75.69
2018-12-30T14:25:07.186Z,75.88
2018-12-30T14:27:36.657Z,75.87
2018-12-30T14:30:08.151Z,76.00
2018-12-30T14:32:37.239Z,75.75
2018-12-30T14:35:06.389Z,75.97
2018-12-30T14:37:35.822Z,76.10
2018-12-30T14:40:07.063Z,76.37
2018-12-30T14:42:36.571Z,76.10
2018-12-30T14:45:08.269Z,76.63
2018-12-30T14:47:37.666Z,76.47
2018-12-30T14:50:09.942Z,76.21
2018-12-30T14:52:39.619Z,76.59
2018-12-30T14:55:08.944Z,76.84
2018-12-30T14:57:38.331Z,77.20
2018-12-30T15:00:08.338Z,77.40
2018-12-30T15:02:37.846Z,77.74
2018-12-30T15:05:07.340Z,77.58
2018-12-30T15:07:36.537Z,78.01
2018-12-30T15:10:06.300Z,77.74
2018-12-30T15:12:35.483Z,77.69
2018-12-30T15:15:04.998Z,76.96
2018-12-30T15:17:34.362Z,76.48
2018-12-30T15:20:04.691Z,77.26
2018-12-30T15:22:33.865Z,77.04
2018-12-30T15:25:03.279Z,77.19
2018-12-30T15:27:32.362Z,76.81
2018-12-30T15:30:01.560Z,76.17
2018-12-30T15:32:30.760Z,76.66
2018-12-30T15:34:59.956Z,77.25
2018-12-30T15:37:29.261Z,77.62
2018-12-30T15:39:58.386Z,77.53
2018-12-30T15:42:27.522Z,77.09
2018-12-30T15:44:56.762Z,77.10
2018-12-30T15:47:25.915Z,77.03
2018-12-30T15:49:55.041Z,77.07
2018-12-30T15:52:24.464Z,77.28
2018-12-30T15:54:54.609Z,77.17
2018-12-30T15:57:23.783Z,77.87
2018-12-30T15:59:53.770Z,77.54
2018-12-30T16:02:23.161Z,77.19
2018-12-30T16:04:52.334Z,77.74
2018-12-30T16:07:21.701Z,77.75
2018-12-30T16:09:50.851Z,78.34
2018-12-30T16:12:20.427Z,77.76
2018-12-30T16:14:49.523Z,78.17
2018-12-30T16:17:18.652Z,78.03
2018-12-30T16:19:47.839Z,77.78
2018-12-30T16:22:16.970Z,78.21
2018-12-30T16:24:46.096Z,78.19
2018-12-30T16:27:15.270Z,78.28
2018-12-30T16:29:44.451Z,78.67
2018-12-30T16:32:13.639Z,78.39
2018-12-30T16:34:42.776Z,78.82
2018-12-30T16:37:11.924Z,78.93
2018-12-30T16:39:41.096Z,78.20
2018-12-30T16:42:10.225Z,78.06
2018-12-30T16:44:39.364Z,77.70
2018-12-30T16:47:08.840Z,78.07
2018-12-30T16:49:38.206Z,77.84
2018-12-30T16:52:07.567Z,77.67
2018-12-30T16:54:38.396Z,78.13
2018-12-30T16:57:08.207Z,77.76
2018-12-30T16:59:37.298Z,77.86
2018-12-30T17:02:06.492Z,78.13
2018-12-30T17:04:35.878Z,78.18
2018-12-30T17:07:05.956Z,78.42
2018-12-30T17:09:35.400Z,78.27
2018-12-30T17:12:05.610Z,78.50
2018-12-30T17:14:35.702Z,78.60
2018-12-30T17:17:06.946Z,79.16
2018-12-30T17:19:36.515Z,79.28
2018-12-30T17:22:06.755Z,79.10
2018-12-30T17:24:36.566Z,79.06
2018-12-30T17:27:06.206Z,78.38
2018-12-30T17:29:35.298Z,78.73
2018-12-30T17:32:05.920Z,78.72
2018-12-30T17:34:35.717Z,78.83
2018-12-30T17:37:06.275Z,78.54
2018-12-30T17:39:35.385Z,78.36
2018-12-30T17:42:05.763Z,78.95
2018-12-30T17:44:34.916Z,79.06
2018-12-30T17:47:05.177Z,79.17
2018-12-30T17:49:34.633Z,79.09
2018-12-30T17:52:04.005Z,79.86
2018-12-30T17:54:33.089Z,79.44
2018-12-30T17:57:02.541Z,79.93
2018-12-30T17:59:31.991Z,79.93
2018-12-30T18:02:01.210Z,79.65
2018-12-30T18:04:30.379Z,80.05
2018-12-30T18:06:59.507Z,79.97
2018-12-30T18:09:28.644Z,79.95
2018-12-30T18:12:01.324Z,80.33
2018-12-30T18:14:30.435Z,80.03
2018-12-30T18:16:59.558Z,80.25
2018-12-30T18:19:28.726Z,80.46
2018-12-30T18:21:58.005Z,80.69
2018-12-30T18:24:27.144Z,80.44
2018-12-30T18:26:56.293Z,80.42
2018-12-30T18:29:25.419Z,79.75
2018-12-30T18:31:54.862Z,79.26
2018-12-30T18:34:24.247Z,79.06
2018-12-30T18:36:53.375Z,78.94
2018-12-30T18:39:22.518Z,78.71
2018-12-30T18:41:51.650Z,78.78
2018-12-30T18:44:21.056Z,78.52
2018-12-30T18:46:50.459Z,78.77
2018-12-30T18:49:19.574Z,78.77
2018-12-30T18:51:48.706Z,78.87
2018-12-30T18:54:18.174Z,78.57
2018-12-30T18:56:47.258Z,78.81
2018-12-30T18:59:16.408Z,78.37
2018-12-30T19:01:45.796Z,79.24
2018-12-30T19:04:14.930Z,78.99
2018-12-30T19:06:44.342Z,79.48
2018-12-30T19:09:13.483Z,79.79
2018-12-30T19:11:42.610Z,79.83
2018-12-30T19:14:12.085Z,79.35
2018-12-30T19:16:41.258Z,78.76
2018-12-30T19:19:10.512Z,78.66
2018-12-30T19:21:39.699Z,78.01
2018-12-30T19:24:08.896Z,78.43
2018-12-30T19:26:38.020Z,78.18
2018-12-30T19:29:07.148Z,78.44
2018-12-30T19:31:36.613Z,78.80
2018-12-30T19:34:05.929Z,77.72
2018-12-30T19:36:35.293Z,77.00
2018-12-30T19:39:06.324Z,76.34
2018-12-30T19:41:35.840Z,76.71
2018-12-30T19:44:06.516Z,76.36
2018-12-30T19:46:35.928Z,75.62
2018-12-30T19:49:06.189Z,75.73
2018-12-30T19:51:35.643Z,75.55
2018-12-30T19:54:05.089Z,75.16
2018-12-30T19:56:34.687Z,75.11
2018-12-30T19:59:05.207Z,74.64
2018-12-30T20:01:34.892Z,75.11
2018-12-30T20:04:04.496Z,74.76
2018-12-30T20:06:33.966Z,74.83
2018-12-30T20:09:04.466Z,74.58
2018-12-30T20:11:33.715Z,75.29
2018-12-30T20:14:02.864Z,75.45
2018-12-30T20:16:32.372Z,75.65
2018-12-30T20:19:01.655Z,75.90
2018-12-30T20:21:31.073Z,76.18
2018-12-30T20:24:00.173Z,76.01
2018-12-30T20:26:30.026Z,75.31
2018-12-30T20:28:59.372Z,75.74
2018-12-30T20:31:28.775Z,76.18
2018-12-30T20:33:58.183Z,77.13
2018-12-30T20:36:27.422Z,78.01
2018-12-30T20:38:58.480Z,78.73
2018-12-30T20:41:27.932Z,78.87
2018-12-30T20:43:57.556Z,78.56
2018-12-30T20:46:26.889Z,78.44
2018-12-30T20:48:56.656Z,78.12
2018-12-30T20:51:25.926Z,77.90
2018-12-30T20:53:55.075Z,77.84
2018-12-30T20:56:24.573Z,77.67
2018-12-30T20:58:53.924Z,77.62
2018-12-30T21:01:23.467Z,77.64
2018-12-30T21:03:53.020Z,76.75
2018-12-30T21:06:22.984Z,76.62
2018-12-30T21:08:52.313Z,75.82
2018-12-30T21:11:21.877Z,75.48
2018-12-30T21:13:51.658Z,74.52
2018-12-30T21:16:21.539Z,74.66
2018-12-30T21:18:51.849Z,74.26
2018-12-30T21:21:21.506Z,74.64
2018-12-30T21:23:50.781Z,74.83
2018-12-30T21:26:20.056Z,75.58
2018-12-30T21:28:49.535Z,75.75
2018-12-30T21:31:19.152Z,75.64
2018-12-30T21:33:48.678Z,75.21
2018-12-30T21:36:18.012Z,75.77
2018-12-30T21:38:47.566Z,76.32
2018-12-30T21:41:16.979Z,76.62
2018-12-30T21:43:46.408Z,76.28
2018-12-30T21:46:15.999Z,76.37
2018-12-30T21:48:46.886Z,76.12
2018-12-30T21:51:16.140Z,75.95
2018-12-30T21:53:45.306Z,75.86
2018-12-30T21:56:14.475Z,76.31
2018-12-30T21:58:43.642Z,75.83
2018-12-30T22:01:13.053Z,76.09
2018-12-30T22:03:42.482Z,75.46
2018-12-30T22:06:11.616Z,74.72
2018-12-30T22:08:41.040Z,74.81
2018-12-30T22:11:11.196Z,75.02
2018-12-30T22:13:40.372Z,75.01
2018-12-30T22:16:10.382Z,75.43
2018-12-30T22:18:39.517Z,75.83
2018-12-30T22:21:09.118Z,75.90
2018-12-30T22:23:38.496Z,76.51
2018-12-30T22:26:09.686Z,76.19
2018-12-30T22:28:39.941Z,76.32
2018-12-30T22:31:09.342Z,77.16
2018-12-30T22:33:38.754Z,77.38
2018-12-30T22:36:08.684Z,77.59
2018-12-30T22:38:37.785Z,78.21
2018-12-30T22:41:07.245Z,79.14
2018-12-30T22:43:36.427Z,78.98
2018-12-30T22:46:06.015Z,79.26
2018-12-30T22:48:35.512Z,79.42
2018-12-30T22:51:06.066Z,79.67
2018-12-30T22:53:35.201Z,79.53
2018-12-30T22:56:05.803Z,78.93
2018-12-30T22:58:35.213Z,79.03
2018-12-30T23:01:06.251Z,79.20
2018-12-30T23:03:35.749Z,79.45
2018-12-30T23:06:05.689Z,79.09
2018-12-30T23:08:35.088Z,79.30
2018-12-30T23:11:04.757Z,78.97
2018-12-30T23:13:34.151Z,78.87
2018-12-30T23:16:03.305Z,79.18
2018-12-30T23:18:32.746Z,78.91
2018-12-30T23:21:01.856Z,78.91
2018-12-30T23:23:31.345Z,78.91
2018-12-30T23:26:00.849Z,78.76
2018-12-30T23:28:29.929Z,78.67
2018-12-30T23:30:59.106Z,78.85
2018-12-30T23:33:28.550Z,78.74
2018-12-30T23:35:57.656Z,78.55
2018-12-30T23:38:26.793Z,78.59
2018-12-30T23:40:55.972Z,78.47
2018-12-30T23:43:25.375Z,78.49
2018-12-30T23:45:54.824Z,78.19
2018-12-30T23:48:23.966Z,78.32
2018-12-30T23:50:53.094Z,78.42
2018-12-30T23:53:22.489Z,78.53
2018-12-30T23:55:54.111Z,78.49
2018-12-30T23:58:23.469Z,78.55
